createdAt,value
2023-04-05T00:02:54.645Z,99.90
2023-04-05T00:05:54.670Z,99.90
2023-04-05T00:08:51.563Z,99.90
2023-04-05T00:11:48.705Z,99.90
2023-04-05T00:14:46.125Z,99.90
2023-04-05T00:17:43.945Z,99.90
2023-04-05T00:20:41.062Z,99.90
2023-04-05T00:23:39.871Z,99.90
2023-04-05T00:26:36.768Z,99.90
2023-04-05T00:29:34.185Z,99.90
2023-04-05T00:32:31.135Z,99.90
2023-04-05T00:35:28.836Z,99.90
2023-04-05T00:38:25.714Z,99.90
2023-04-05T00:41:22.550Z,99.90
2023-04-05T00:44:19.401Z,99.90
2023-04-05T00:47:16.238Z,99.90
2023-04-05T00:50:13.486Z,99.90
2023-04-05T00:53:10.652Z,99.90
2023-04-05T00:56:08.889Z,99.90
2023-04-05T00:59:05.832Z,99.90
2023-04-05T01:02:31.809Z,99.90
2023-04-05T01:06:18.705Z,99.90
2023-04-05T01:09:47.871Z,99.90
2023-04-05T01:12:45.506Z,99.90
2023-04-05T01:15:42.463Z,99.90
2023-04-05T01:18:40.746Z,99.90
2023-04-05T01:21:40.116Z,99.90
2023-04-05T01:24:57.909Z,99.90
2023-04-05T01:28:31.405Z,99.90
2023-04-05T01:32:00.698Z,99.90
2023-04-05T01:35:17.878Z,99.90
2023-04-05T01:38:22.253Z,99.90
2023-04-05T01:41:19.111Z,99.90
2023-04-05T01:44:16.306Z,99.90
2023-04-05T01:47:13.267Z,99.90
2023-04-05T01:50:10.620Z,99.90
2023-04-05T01:53:08.389Z,99.90
2023-04-05T01:56:05.705Z,99.90
2023-04-05T01:59:02.697Z,99.90
2023-04-05T02:01:59.594Z,99.90
2023-04-05T02:04:56.422Z,99.90
2023-04-05T02:07:53.312Z,99.90
2023-04-05T02:10:52.501Z,99.90
2023-04-05T02:13:49.342Z,99.90
2023-04-05T02:16:46.744Z,99.90
2023-04-05T02:19:46.268Z,99.90
2023-04-05T02:22:45.247Z,99.90
2023-04-05T02:25:42.337Z,99.90
2023-04-05T02:28:39.191Z,99.90
2023-04-05T02:31:36.094Z,99.90
2023-04-05T02:34:33.721Z,99.90
2023-04-05T02:37:30.897Z,99.90
2023-04-05T02:40:27.795Z,99.90
2023-04-05T02:43:24.648Z,99.90
2023-04-05T02:46:21.607Z,99.90
2023-04-05T02:49:18.581Z,99.90
2023-04-05T02:52:16.262Z,99.90
2023-04-05T02:55:13.105Z,99.90
2023-04-05T02:58:09.956Z,99.90
2023-04-05T03:01:07.352Z,99.90
2023-04-05T03:04:04.323Z,99.90
2023-04-05T03:07:04.917Z,99.90
2023-04-05T03:10:02.597Z,99.90
2023-04-05T03:12:59.435Z,99.90
2023-04-05T03:15:56.300Z,99.90
2023-04-05T03:18:53.257Z,99.90
2023-04-05T03:21:50.385Z,99.90
2023-04-05T03:24:47.806Z,99.90
2023-04-05T03:27:45.937Z,99.90
2023-04-05T03:30:42.772Z,99.90
2023-04-05T03:33:39.654Z,99.90
2023-04-05T03:36:42.651Z,99.90
2023-04-05T03:39:39.542Z,99.90
2023-04-05T03:42:36.381Z,99.90
2023-04-05T03:45:33.835Z,99.90
2023-04-05T03:48:30.778Z,99.90
2023-04-05T03:51:28.064Z,99.90
2023-04-05T03:54:24.946Z,99.90
2023-04-05T03:57:22.289Z,99.90
2023-04-05T04:00:19.990Z,99.90
2023-04-05T04:03:16.804Z,99.90
2023-04-05T04:06:14.355Z,99.90
2023-04-05T04:09:12.199Z,99.90
2023-04-05T04:12:09.052Z,99.90
2023-04-05T04:15:06.981Z,99.90
2023-04-05T04:18:04.238Z,99.90
2023-04-05T04:21:06.880Z,99.90
2023-04-05T04:24:04.038Z,99.90
2023-04-05T04:27:00.865Z,99.90
2023-04-05T04:30:04.520Z,99.90
2023-04-05T04:33:06.656Z,99.90
2023-04-05T04:36:09.403Z,99.90
2023-04-05T04:39:06.380Z,99.90
2023-04-05T04:42:04.126Z,99.90
2023-04-05T04:45:02.694Z,99.90
2023-04-05T04:47:59.932Z,99.90
2023-04-05T04:50:57.405Z,99.90
2023-04-05T04:53:54.193Z,99.90
2023-04-05T04:56:51.055Z,99.90
2023-04-05T04:59:47.886Z,99.90
2023-04-05T05:02:44.845Z,99.90
2023-04-05T05:05:51.648Z,99.90
2023-04-05T05:08:49.098Z,99.90
2023-04-05T05:11:46.060Z,99.90
2023-04-05T05:14:42.992Z,99.90
2023-04-05T05:17:39.976Z,99.90
2023-04-05T05:20:37.402Z,99.90
2023-04-05T05:23:34.273Z,99.90
2023-04-05T05:26:31.114Z,99.90
2023-04-05T05:29:28.041Z,99.90
2023-04-05T05:32:24.897Z,99.90
2023-04-05T05:35:21.732Z,99.90
2023-04-05T05:38:18.901Z,99.90
2023-04-05T05:41:15.853Z,99.90
2023-04-05T05:44:13.430Z,99.90
2023-04-05T05:47:10.350Z,99.90
2023-04-05T05:50:09.110Z,99.90
2023-04-05T05:53:06.199Z,99.90
2023-04-05T05:56:03.363Z,99.90
2023-04-05T05:59:01.714Z,99.90
2023-04-05T06:01:58.645Z,99.90
2023-04-05T06:04:55.665Z,99.90
2023-04-05T06:07:52.891Z,99.90
2023-04-05T06:10:51.026Z,99.90
2023-04-05T06:13:47.873Z,99.90
2023-04-05T06:16:44.954Z,99.90
2023-04-05T06:19:41.843Z,99.90
2023-04-05T06:22:41.234Z,99.90
2023-04-05T06:25:38.259Z,99.90
2023-04-05T06:28:35.440Z,99.90
2023-04-05T06:31:34.828Z,99.90
2023-04-05T06:34:31.924Z,99.90
2023-04-05T06:37:28.801Z,99.90
2023-04-05T06:40:25.953Z,99.90
2023-04-05T06:43:22.817Z,99.90
2023-04-05T06:46:19.742Z,99.90
2023-04-05T06:49:16.700Z,99.90
2023-04-05T06:52:13.519Z,99.90
2023-04-05T06:55:10.504Z,99.90
2023-04-05T06:58:07.328Z,99.90
2023-04-05T07:01:04.995Z,99.90
2023-04-05T07:04:02.103Z,99.90
2023-04-05T07:07:02.403Z,99.90
2023-04-05T07:09:59.622Z,99.90
2023-04-05T07:12:56.551Z,99.90
2023-04-05T07:16:00.423Z,99.90
2023-04-05T07:18:57.905Z,99.90
2023-04-05T07:21:57.150Z,99.90
2023-04-05T07:24:55.533Z,99.90
2023-04-05T07:27:52.768Z,99.90
2023-04-05T07:30:49.933Z,99.90
2023-04-05T07:33:46.767Z,99.90
2023-04-05T07:36:43.571Z,99.90
2023-04-05T07:39:40.508Z,99.90
2023-04-05T07:42:37.661Z,99.90
2023-04-05T07:45:34.504Z,99.90
2023-04-05T07:48:31.477Z,99.90
2023-04-05T07:51:28.395Z,99.90
2023-04-05T07:54:25.368Z,99.90
2023-04-05T07:57:22.532Z,99.90
2023-04-05T08:00:20.428Z,99.90
2023-04-05T08:03:17.502Z,99.90
2023-04-05T08:06:19.230Z,99.90
2023-04-05T08:09:16.089Z,99.90
2023-04-05T08:12:12.914Z,99.90
2023-04-05T08:15:10.502Z,99.90
2023-04-05T08:18:07.371Z,99.90
2023-04-05T08:21:04.335Z,99.80
2023-04-05T08:24:01.238Z,99.90
2023-04-05T08:26:58.098Z,99.10
2023-04-05T08:29:54.892Z,96.90
2023-04-05T08:32:51.776Z,97.40
2023-04-05T08:35:48.677Z,97.50
2023-04-05T08:38:45.630Z,97.30
2023-04-05T08:42:02.191Z,97.90
2023-04-05T08:45:03.315Z,97.50
2023-04-05T08:48:00.259Z,99.90
2023-04-05T08:50:57.108Z,99.90
2023-04-05T08:53:54.665Z,99.90
2023-04-05T08:56:54.542Z,99.90
2023-04-05T08:59:52.902Z,99.90
2023-04-05T09:02:54.750Z,99.90
2023-04-05T09:05:53.624Z,99.90
2023-04-05T09:08:50.570Z,99.90
2023-04-05T09:11:48.444Z,99.90
2023-04-05T09:14:46.378Z,99.90
2023-04-05T09:17:44.032Z,99.50
2023-04-05T09:20:41.099Z,99.00
2023-04-05T09:23:50.755Z,95.90
2023-04-05T09:26:47.639Z,95.90
2023-04-05T09:29:47.590Z,97.60
2023-04-05T09:32:47.910Z,99.90
2023-04-05T09:35:45.054Z,98.90
2023-04-05T09:38:44.746Z,98.90
2023-04-05T09:41:41.907Z,97.30
2023-04-05T09:44:55.049Z,95.60
2023-04-05T09:47:58.111Z,95.80
2023-04-05T09:51:12.682Z,99.90
2023-04-05T09:54:11.368Z,95.50
2023-04-05T09:57:10.361Z,95.40
2023-04-05T10:00:20.698Z,92.10
2023-04-05T10:03:17.800Z,93.10
2023-04-05T10:06:16.723Z,92.00
2023-04-05T10:09:15.224Z,90.60
2023-04-05T10:12:28.447Z,85.30
2023-04-05T10:15:26.919Z,80.70
2023-04-05T10:18:29.794Z,83.50
2023-04-05T10:21:33.688Z,70.80
2023-04-05T10:24:59.986Z,59.90
2023-04-05T10:28:06.403Z,61.90
2023-04-05T10:31:37.079Z,62.50
2023-04-05T10:34:51.255Z,64.50
2023-04-05T10:38:20.039Z,65.00
2023-04-05T10:41:17.442Z,64.00
2023-04-05T10:44:25.745Z,60.30
2023-04-05T10:47:28.227Z,59.00
2023-04-05T10:50:25.856Z,57.80
2023-04-05T10:53:23.415Z,55.90
2023-04-05T10:56:21.518Z,55.20
2023-04-05T10:59:19.021Z,56.90
2023-04-05T11:02:16.907Z,53.90
2023-04-05T11:05:37.769Z,63.20
2023-04-05T11:08:35.549Z,50.20
2023-04-05T11:11:46.344Z,55.90
2023-04-05T11:14:44.535Z,58.20
2023-04-05T11:17:41.467Z,51.10
2023-04-05T11:20:51.598Z,68.40
2023-04-05T11:24:11.829Z,50.00
2023-04-05T11:27:10.213Z,53.50
2023-04-05T11:30:07.766Z,49.40
2023-04-05T11:33:08.601Z,49.90
2023-04-05T11:36:05.632Z,49.90
2023-04-05T11:39:23.420Z,52.40
2023-04-05T11:42:21.814Z,50.00
2023-04-05T11:45:19.664Z,50.80
2023-04-05T11:48:17.782Z,51.40
2023-04-05T11:51:16.080Z,48.30
2023-04-05T11:54:12.919Z,55.50
2023-04-05T11:57:14.027Z,49.80
2023-04-05T12:00:18.652Z,49.70
2023-04-05T12:03:17.254Z,53.60
2023-04-05T12:06:14.115Z,49.20
2023-04-05T12:09:11.048Z,48.90
2023-04-05T12:12:17.256Z,47.20
2023-04-05T12:15:17.675Z,48.70
2023-04-05T12:18:15.522Z,46.30
2023-04-05T12:21:12.512Z,48.50
2023-04-05T12:24:09.627Z,46.50
2023-04-05T12:27:06.817Z,46.30
2023-04-05T12:30:08.510Z,47.40
2023-04-05T12:33:11.936Z,45.80
2023-04-05T12:36:09.279Z,46.20
2023-04-05T12:39:08.729Z,55.10
2023-04-05T12:42:05.856Z,47.30
2023-04-05T12:45:05.281Z,59.70
2023-04-05T12:48:02.302Z,61.80
2023-04-05T12:51:05.016Z,65.20
2023-04-05T12:54:04.219Z,64.80
2023-04-05T12:57:04.484Z,51.90
2023-04-05T13:00:01.477Z,56.00
2023-04-05T13:02:59.736Z,54.20
2023-04-05T13:05:57.014Z,54.00
2023-04-05T13:08:53.925Z,52.80
2023-04-05T13:11:51.532Z,52.70
2023-04-05T13:14:48.476Z,52.70
2023-04-05T13:17:49.912Z,53.10
2023-04-05T13:20:47.121Z,50.80
2023-04-05T13:23:43.954Z,54.50
2023-04-05T13:26:40.840Z,47.60
2023-04-05T13:29:37.651Z,54.60
2023-04-05T13:32:34.755Z,53.60
2023-04-05T13:35:31.968Z,60.40
2023-04-05T13:38:28.842Z,56.10
2023-04-05T13:41:26.032Z,79.10
2023-04-05T13:44:23.398Z,52.70
2023-04-05T13:47:20.358Z,50.30
2023-04-05T13:50:17.218Z,48.10
2023-04-05T13:53:14.193Z,50.00
2023-04-05T13:56:11.078Z,54.10
2023-04-05T13:59:08.063Z,51.20
2023-04-05T14:02:05.043Z,51.50
2023-04-05T14:05:02.102Z,52.80
2023-04-05T14:07:58.930Z,51.70
2023-04-05T14:10:55.955Z,49.70
2023-04-05T14:13:52.844Z,49.20
2023-04-05T14:16:49.673Z,58.50
2023-04-05T14:19:46.633Z,73.20
2023-04-05T14:22:43.494Z,72.30
2023-04-05T14:25:40.609Z,78.00
2023-04-05T14:28:37.745Z,85.60
2023-04-05T14:31:34.781Z,55.30
2023-04-05T14:34:31.692Z,46.00
2023-04-05T14:37:28.701Z,90.80
2023-04-05T14:40:25.685Z,59.10
2023-04-05T14:43:25.801Z,88.20
2023-04-05T14:46:23.552Z,90.70
2023-04-05T14:49:20.561Z,82.40
2023-04-05T14:52:17.533Z,88.20
2023-04-05T14:55:14.870Z,68.90
2023-04-05T14:58:13.775Z,84.50
2023-04-05T15:01:11.403Z,62.60
2023-04-05T15:04:09.456Z,78.50
2023-04-05T15:07:06.406Z,47.90
2023-04-05T15:10:04.195Z,46.90
2023-04-05T15:13:01.245Z,60.00
2023-04-05T15:15:58.061Z,70.90
2023-04-05T15:18:55.583Z,69.20
2023-04-05T15:21:52.455Z,64.20
2023-04-05T15:24:49.481Z,68.60
2023-04-05T15:27:46.379Z,60.40
2023-04-05T15:30:44.861Z,71.10
2023-04-05T15:33:41.693Z,50.70
2023-04-05T15:36:38.554Z,76.70
2023-04-05T15:39:35.380Z,79.00
2023-04-05T15:42:34.470Z,53.70
2023-04-05T15:45:31.775Z,64.00
2023-04-05T15:48:28.604Z,86.00
2023-04-05T15:51:25.630Z,72.60
2023-04-05T15:54:22.459Z,48.10
2023-04-05T15:57:19.751Z,64.90
2023-04-05T16:00:17.026Z,63.30
2023-04-05T16:03:14.609Z,84.90
2023-04-05T16:06:11.587Z,77.10
2023-04-05T16:09:08.457Z,60.70
2023-04-05T16:12:05.528Z,68.40
2023-04-05T16:15:02.493Z,63.50
2023-04-05T16:17:59.440Z,75.60
2023-04-05T16:20:57.382Z,70.60
2023-04-05T16:23:56.772Z,70.40
2023-04-05T16:26:53.718Z,70.50
2023-04-05T16:29:50.593Z,64.70
2023-04-05T16:32:49.628Z,60.80
2023-04-05T16:35:46.503Z,79.90
2023-04-05T16:38:45.027Z,66.00
2023-04-05T16:41:43.021Z,69.50
2023-04-05T16:44:39.941Z,68.80
2023-04-05T16:47:37.587Z,61.40
2023-04-05T16:50:34.614Z,58.90
2023-04-05T16:53:31.512Z,56.80
2023-04-05T16:56:28.840Z,61.90
2023-04-05T16:59:25.863Z,60.90
2023-04-05T17:02:22.876Z,79.80
2023-04-05T17:05:19.702Z,71.20
2023-04-05T17:08:16.521Z,80.60
2023-04-05T17:11:13.405Z,96.20
2023-04-05T17:14:10.306Z,78.20
2023-04-05T17:17:07.111Z,80.90
2023-04-05T17:20:04.544Z,72.90
2023-04-05T17:23:01.446Z,61.10
2023-04-05T17:25:58.254Z,59.80
2023-04-05T17:28:55.073Z,59.40
2023-04-05T17:31:51.872Z,59.40
2023-04-05T17:34:48.676Z,64.40
2023-04-05T17:37:46.680Z,72.30
2023-04-05T17:40:43.544Z,65.00
2023-04-05T17:43:40.533Z,74.60
2023-04-05T17:46:42.627Z,70.40
2023-04-05T17:49:41.539Z,70.00
2023-04-05T17:52:38.376Z,75.60
2023-04-05T17:55:35.253Z,72.90
2023-04-05T17:58:32.552Z,72.10
2023-04-05T18:01:29.521Z,70.30
2023-04-05T18:04:26.880Z,82.20
2023-04-05T18:07:23.752Z,76.30
2023-04-05T18:10:21.226Z,79.60
2023-04-05T18:13:19.445Z,82.10
2023-04-05T18:16:16.586Z,77.80
2023-04-05T18:19:13.513Z,78.10
2023-04-05T18:22:10.592Z,82.10
2023-04-05T18:25:09.150Z,85.90
2023-04-05T18:28:19.295Z,82.80
2023-04-05T18:31:18.945Z,79.10
2023-04-05T18:34:16.336Z,80.30
2023-04-05T18:37:13.173Z,80.40
2023-04-05T18:40:10.543Z,78.80
2023-04-05T18:43:07.573Z,82.30
2023-04-05T18:46:04.602Z,83.80
2023-04-05T18:49:01.462Z,89.10
2023-04-05T18:51:58.353Z,89.80
2023-04-05T18:54:58.440Z,92.00
2023-04-05T18:57:55.327Z,94.00
2023-04-05T19:00:52.798Z,95.80
2023-04-05T19:03:50.488Z,95.30
2023-04-05T19:06:47.361Z,93.80
2023-04-05T19:09:44.291Z,95.10
2023-04-05T19:12:41.324Z,94.20
2023-04-05T19:15:38.524Z,94.80
2023-04-05T19:18:35.605Z,96.10
2023-04-05T19:21:32.592Z,96.50
2023-04-05T19:24:29.420Z,96.50
2023-04-05T19:27:30.813Z,96.40
2023-04-05T19:30:27.636Z,97.40
2023-04-05T19:33:24.456Z,97.90
2023-04-05T19:36:21.293Z,98.50
2023-04-05T19:39:18.143Z,98.70
2023-04-05T19:42:14.958Z,98.20
2023-04-05T19:45:13.702Z,97.80
2023-04-05T19:48:36.894Z,97.90
2023-04-05T19:51:33.768Z,99.00
2023-04-05T19:54:30.605Z,99.30
2023-04-05T19:57:28.676Z,99.90
2023-04-05T20:00:42.760Z,99.90
2023-04-05T20:03:41.309Z,99.90
2023-04-05T20:06:38.983Z,99.90
2023-04-05T20:09:38.625Z,99.90
2023-04-05T20:12:35.521Z,99.90
2023-04-05T20:15:37.387Z,99.90
2023-04-05T20:18:34.305Z,99.90
2023-04-05T20:21:31.238Z,99.90
2023-04-05T20:24:28.694Z,99.90
2023-04-05T20:27:25.529Z,99.90
2023-04-05T20:30:22.339Z,99.90
2023-04-05T20:33:47.181Z,99.90
2023-04-05T20:36:49.493Z,99.90
2023-04-05T20:39:46.314Z,99.90
2023-04-05T20:42:43.189Z,99.90
2023-04-05T20:45:40.106Z,99.90
2023-04-05T20:48:37.462Z,99.90
2023-04-05T20:51:34.392Z,99.90
2023-04-05T20:54:31.586Z,99.90
2023-04-05T20:57:29.410Z,99.90
2023-04-05T21:00:26.212Z,99.90
2023-04-05T21:03:23.454Z,99.90
2023-04-05T21:06:20.508Z,99.90
2023-04-05T21:09:17.399Z,99.90
2023-04-05T21:12:14.210Z,99.90
2023-04-05T21:15:11.116Z,99.90
2023-04-05T21:18:08.441Z,99.90
2023-04-05T21:21:05.730Z,99.90
2023-04-05T21:24:02.591Z,99.90
2023-04-05T21:26:59.402Z,99.90
2023-04-05T21:29:56.278Z,99.90
2023-04-05T21:32:54.052Z,99.90
2023-04-05T21:35:51.194Z,99.90
2023-04-05T21:38:48.086Z,99.90
2023-04-05T21:41:44.938Z,99.90
2023-04-05T21:44:41.755Z,99.90
2023-04-05T21:47:38.728Z,99.90
2023-04-05T21:50:35.743Z,99.90
2023-04-05T21:53:32.626Z,99.90
2023-04-05T21:56:29.444Z,99.90
2023-04-05T21:59:26.300Z,99.90
2023-04-05T22:02:23.215Z,99.90
2023-04-05T22:05:34.042Z,99.90
2023-04-05T22:08:34.360Z,99.90
2023-04-05T22:11:31.366Z,99.90
2023-04-05T22:14:28.528Z,99.90
2023-04-05T22:17:25.575Z,99.90
2023-04-05T22:20:22.453Z,99.90
2023-04-05T22:23:19.262Z,99.90
2023-04-05T22:26:16.084Z,99.90
2023-04-05T22:29:13.000Z,99.90
2023-04-05T22:32:10.044Z,99.90
2023-04-05T22:35:07.437Z,99.90
2023-04-05T22:38:04.456Z,99.90
2023-04-05T22:41:01.381Z,99.90
2023-04-05T22:43:58.240Z,99.90
2023-04-05T22:46:55.035Z,99.90
2023-04-05T22:49:52.340Z,99.90
2023-04-05T22:52:49.220Z,99.90
2023-04-05T22:55:46.068Z,99.90
2023-04-05T22:58:42.892Z,99.90
2023-04-05T23:01:39.847Z,99.90
2023-04-05T23:04:36.777Z,99.90
2023-04-05T23:07:33.670Z,99.90
2023-04-05T23:10:30.570Z,99.90
2023-04-05T23:13:27.509Z,99.90
2023-04-05T23:16:24.480Z,99.90
2023-04-05T23:19:21.482Z,99.90
2023-04-05T23:22:18.270Z,99.90
2023-04-05T23:25:15.093Z,99.90
2023-04-05T23:28:11.906Z,99.90
2023-04-05T23:31:08.841Z,99.90
2023-04-05T23:34:05.789Z,99.90
2023-04-05T23:37:02.585Z,99.90
2023-04-05T23:39:59.400Z,99.90
2023-04-05T23:42:56.410Z,99.90
2023-04-05T23:45:53.250Z,99.90
2023-04-05T23:48:51.072Z,99.90
2023-04-05T23:51:47.909Z,99.90
2023-04-05T23:54:44.731Z,99.90
2023-04-05T23:57:41.684Z,99.90
